Time;durP1;ratioP1;P1;durP2;ratioP2;P2;SDS_P1;SDS_P2;PMS_P1;PMS_P2;Temp;Humidity;BMP_temperature;BMP_pressure;BME280_temperature;BME280_humidity;BME280_pressure;Samples;Min_cycle;Max_cycle;Signal;HPM_P1;HPM_P2
2021/01/08 00:01:54;;;;;;;17.52;10.52;;;6.00;99.90;;;;;;5033598;28;20041;-75
2021/01/08 00:04:21;;;;;;;19.13;12.18;;;6.00;99.90;;;;;;5031332;28;20461;-78
2021/01/08 00:06:47;;;;;;;22.02;13.32;;;6.00;99.90;;;;;;5025321;28;20040;-81
2021/01/08 00:09:13;;;;;;;21.13;11.63;;;6.00;99.90;;;;;;5035961;28;20029;-75
2021/01/08 00:11:39;;;;;;;15.25;10.40;;;6.00;99.90;;;;;;5034526;28;20063;-80
2021/01/08 00:14:05;;;;;;;19.42;9.75;;;6.00;99.90;;;;;;5035435;28;20382;-74
2021/01/08 00:16:34;;;;;;;22.60;11.30;;;6.00;99.90;;;;;;5035680;28;20022;-76
2021/01/08 00:19:03;;;;;;;11.50;7.90;;;6.00;99.90;;;;;;5035369;28;20049;-78
2021/01/08 00:21:42;;;;;;;13.18;7.82;;;6.00;99.90;;;;;;5035200;28;20513;-74
2021/01/08 00:24:10;;;;;;;19.75;9.95;;;6.00;99.90;;;;;;5028788;28;20032;-78
2021/01/08 00:26:36;;;;;;;12.23;8.52;;;6.10;99.90;;;;;;5030471;28;22135;-79
2021/01/08 00:29:02;;;;;;;17.10;8.98;;;6.10;99.90;;;;;;5036625;28;20121;-76
2021/01/08 00:31:41;;;;;;;10.98;8.23;;;6.10;99.90;;;;;;5040303;28;20470;-76
2021/01/08 00:34:08;;;;;;;10.60;7.60;;;6.00;99.90;;;;;;5038269;28;20168;-77
2021/01/08 00:36:34;;;;;;;13.50;7.50;;;6.00;99.90;;;;;;5028337;28;20014;-78
2021/01/08 00:39:02;;;;;;;13.57;8.65;;;6.00;99.90;;;;;;5028056;28;20029;-77
2021/01/08 00:41:34;;;;;;;14.68;8.52;;;6.00;99.90;;;;;;5045356;28;20103;-79
2021/01/08 00:44:00;;;;;;;;;;;6.00;99.90;;;;;;5059003;28;20535;-77
2021/01/08 00:46:32;;;;;;;16.85;7.95;;;6.00;99.90;;;;;;5059157;28;19999;-76
2021/01/08 00:48:57;;;;;;;14.98;8.95;;;5.90;99.90;;;;;;5058463;28;20057;-77
2021/01/08 00:51:25;;;;;;;18.15;8.48;;;5.90;99.90;;;;;;5032578;28;20026;-77
2021/01/08 00:53:50;;;;;;;12.57;8.55;;;5.90;99.90;;;;;;5051047;28;20469;-79
2021/01/08 00:56:18;;;;;;;15.70;9.00;;;5.90;99.90;;;;;;5056820;28;20029;-77
2021/01/08 00:58:43;;;;;;;14.30;8.73;;;5.80;99.90;;;;;;5053500;28;20032;-78
2021/01/08 01:01:09;;;;;;;15.43;9.45;;;5.80;99.90;;;;;;5053171;28;20025;-78
2021/01/08 01:03:35;;;;;;;14.00;9.52;;;5.80;99.90;;;;;;5053365;28;20056;-78
2021/01/08 01:06:00;;;;;;;13.65;8.52;;;5.90;99.90;;;;;;5037597;28;20025;-78
2021/01/08 01:08:26;;;;;;;14.55;9.15;;;5.90;99.90;;;;;;5033132;28;20084;-76
2021/01/08 01:10:52;;;;;;;13.15;9.07;;;5.80;99.90;;;;;;5031507;28;20033;-78
2021/01/08 01:13:17;;;;;;;15.40;10.00;;;5.80;99.90;;;;;;5015469;28;20032;-76
2021/01/08 01:15:43;;;;;;;13.77;9.07;;;5.80;99.90;;;;;;5032774;28;20049;-77
2021/01/08 01:18:10;;;;;;;14.90;9.30;;;5.80;99.90;;;;;;5033273;28;20100;-77
2021/01/08 01:20:36;;;;;;;17.17;8.88;;;5.80;99.90;;;;;;5033055;28;20022;-75
2021/01/08 01:23:02;;;;;;;14.07;8.88;;;5.80;99.90;;;;;;5032840;28;20056;-75
2021/01/08 01:25:28;;;;;;;13.25;8.65;;;5.80;99.90;;;;;;5032637;28;20405;-79
2021/01/08 01:27:53;;;;;;;13.50;8.57;;;5.70;99.90;;;;;;5032884;28;20030;-77
2021/01/08 01:30:19;;;;;;;14.05;9.43;;;5.70;99.90;;;;;;5032477;28;20092;-77
2021/01/08 01:32:45;;;;;;;12.57;8.88;;;5.70;99.90;;;;;;5014423;28;20036;-78
2021/01/08 01:35:11;;;;;;;14.88;9.27;;;5.70;99.90;;;;;;5032033;28;20033;-76
2021/01/08 01:37:36;;;;;;;15.85;8.75;;;5.70;99.90;;;;;;5014374;28;20075;-78
2021/01/08 01:40:03;;;;;;;19.40;9.10;;;5.70;99.90;;;;;;5032559;28;20084;-79
2021/01/08 01:42:29;;;;;;;12.65;8.35;;;5.70;99.90;;;;;;5032524;28;20059;-78
2021/01/08 01:44:54;;;;;;;12.70;8.20;;;5.70;99.90;;;;;;5032111;28;20032;-79
2021/01/08 01:47:21;;;;;;;13.43;8.23;;;5.70;99.90;;;;;;5031926;28;20109;-78
2021/01/08 01:49:47;;;;;;;11.43;7.80;;;5.70;99.90;;;;;;5031880;28;20014;-77
2021/01/08 01:52:13;;;;;;;15.82;8.60;;;5.70;99.90;;;;;;5031569;28;20393;-80
2021/01/08 01:54:39;;;;;;;12.40;8.90;;;5.70;99.90;;;;;;5032049;28;20036;-77
2021/01/08 01:57:05;;;;;;;13.32;8.38;;;5.70;99.90;;;;;;5014269;28;20084;-76
2021/01/08 01:59:30;;;;;;;13.63;8.60;;;5.70;99.90;;;;;;5032144;28;20045;-79
2021/01/08 02:02:00;;;;;;;12.95;8.60;;;5.70;99.90;;;;;;5031933;28;20492;-80
2021/01/08 02:04:27;;;;;;;13.20;8.45;;;5.70;99.90;;;;;;5014034;28;20504;-79
2021/01/08 02:06:53;;;;;;;14.68;8.07;;;5.70;99.90;;;;;;5033308;28;20025;-76
2021/01/08 02:09:20;;;;;;;18.02;7.97;;;5.70;99.90;;;;;;5032038;28;20159;-75
2021/01/08 02:11:51;;;;;;;18.58;9.10;;;5.70;99.90;;;;;;5031861;28;20021;-76
2021/01/08 02:14:20;;;;;;;12.20;8.00;;;5.70;99.90;;;;;;5031737;28;20501;-77
2021/01/08 02:16:49;;;;;;;15.80;9.23;;;5.70;99.90;;;;;;5032013;28;20017;-77
2021/01/08 02:19:24;;;;;;;15.60;8.60;;;5.70;99.90;;;;;;5031305;28;20060;-78
2021/01/08 02:21:55;;;;;;;13.73;9.43;;;5.70;99.90;;;;;;5031760;28;20069;-76
2021/01/08 02:24:34;;;;;;;13.25;8.65;;;5.70;99.90;;;;;;5031804;28;20020;-80
2021/01/08 02:27:00;;;;;;;17.92;9.23;;;5.70;99.90;;;;;;5013643;28;20449;-76
2021/01/08 02:29:27;;;;;;;14.80;9.07;;;5.70;99.90;;;;;;5031033;28;20030;-75
2021/01/08 02:31:54;;;;;;;13.30;8.35;;;5.70;99.90;;;;;;5031066;28;20029;-79
2021/01/08 02:34:24;;;;;;;17.50;9.10;;;5.70;99.90;;;;;;5030806;28;20072;-78
2021/01/08 02:36:50;;;;;;;14.48;9.23;;;5.70;99.90;;;;;;5012794;28;20025;-78
2021/01/08 02:39:16;;;;;;;14.30;8.73;;;5.70;99.90;;;;;;5031158;28;20101;-79
2021/01/08 02:41:44;;;;;;;15.50;9.00;;;5.70;99.90;;;;;;5031135;28;20124;-76
2021/01/08 02:44:14;;;;;;;16.67;8.88;;;5.70;99.90;;;;;;5030915;28;20060;-77
2021/01/08 02:46:41;;;;;;;15.07;9.27;;;5.70;99.90;;;;;;5030780;28;20053;-76
2021/01/08 02:49:06;;;;;;;15.23;8.60;;;5.70;99.90;;;;;;5031108;28;20014;-76
2021/01/08 02:51:32;;;;;;;15.48;8.43;;;5.70;99.90;;;;;;5031250;28;20029;-77
2021/01/08 02:53:59;;;;;;;15.70;8.88;;;5.70;99.90;;;;;;5012874;28;20061;-77
2021/01/08 02:56:32;;;;;;;14.13;8.38;;;5.70;99.90;;;;;;5030860;28;20057;-77
2021/01/08 02:58:59;;;;;;;13.07;8.23;;;5.70;99.90;;;;;;5030608;28;20037;-78
2021/01/08 03:01:25;;;;;;;13.48;8.10;;;5.70;99.90;;;;;;5030184;28;20088;-79
2021/01/08 03:03:52;;;;;;;19.23;7.88;;;5.70;99.90;;;;;;5030981;28;20064;-80
2021/01/08 03:06:17;;;;;;;12.90;7.25;;;5.70;99.90;;;;;;5031272;28;20100;-79
2021/01/08 03:08:44;;;;;;;14.20;7.60;;;5.70;99.90;;;;;;5030887;28;20520;-79
2021/01/08 03:11:10;;;;;;;13.57;8.73;;;5.70;99.90;;;;;;5030829;28;20021;-79
2021/01/08 03:13:40;;;;;;;19.33;7.93;;;5.80;99.90;;;;;;5030519;28;20124;-81
2021/01/08 03:16:07;;;;;;;14.85;7.97;;;5.80;99.90;;;;;;5030893;28;20520;-78
2021/01/08 03:18:33;;;;;;;13.30;8.10;;;5.80;99.90;;;;;;5030818;28;20049;-80
2021/01/08 03:20:58;;;;;;;14.32;7.82;;;5.80;99.90;;;;;;5030459;28;20065;-78
2021/01/08 03:23:24;;;;;;;15.18;8.07;;;5.80;99.90;;;;;;5030487;28;20021;-82
2021/01/08 03:25:50;;;;;;;11.05;7.53;;;5.80;99.90;;;;;;5030210;28;20025;-81
2021/01/08 03:28:17;;;;;;;13.15;8.07;;;5.80;99.90;;;;;;5030379;28;20033;-80
2021/01/08 03:30:43;;;;;;;14.85;8.30;;;5.80;99.90;;;;;;5030403;28;20559;-80
2021/01/08 03:33:09;;;;;;;12.60;7.97;;;5.80;99.90;;;;;;5030339;28;20029;-80
2021/01/08 03:35:34;;;;;;;10.02;7.10;;;5.80;99.90;;;;;;5030432;28;20045;-81
2021/01/08 03:38:00;;;;;;;13.70;8.07;;;5.80;99.90;;;;;;5013127;28;20393;-80
2021/01/08 03:40:26;;;;;;;12.85;8.23;;;5.80;99.90;;;;;;5030366;28;20034;-79
2021/01/08 03:42:51;;;;;;;13.95;7.95;;;5.80;99.90;;;;;;5030138;28;20038;-80
2021/01/08 03:45:17;;;;;;;14.73;9.15;;;5.80;99.90;;;;;;5030930;28;20026;-82
2021/01/08 03:47:43;;;;;;;10.93;7.38;;;5.80;99.90;;;;;;5030817;28;20117;-82
2021/01/08 03:50:09;;;;;;;14.40;8.45;;;5.80;99.90;;;;;;5012753;28;20026;-80
2021/01/08 03:52:35;;;;;;;12.43;7.70;;;5.80;99.90;;;;;;5030629;28;20544;-81
2021/01/08 03:55:01;;;;;;;13.55;8.43;;;5.80;99.90;;;;;;5030307;28;20117;-80
2021/01/08 03:57:26;;;;;;;12.32;7.85;;;5.80;99.90;;;;;;5031910;28;20033;-79
2021/01/08 03:59:52;;;;;;;13.68;8.52;;;5.80;99.90;;;;;;5016418;28;20092;-79
2021/01/08 04:02:18;;;;;;;12.82;7.80;;;5.80;99.90;;;;;;5033906;28;20084;-81
2021/01/08 04:04:44;;;;;;;14.18;8.60;;;5.80;99.90;;;;;;5033790;28;20025;-81
2021/01/08 04:07:10;;;;;;;16.35;8.82;;;5.80;99.90;;;;;;5033767;28;20029;-82
2021/01/08 04:09:36;;;;;;;14.10;8.32;;;5.80;99.90;;;;;;5034201;28;20018;-78
2021/01/08 04:12:01;;;;;;;15.02;8.27;;;5.90;99.90;;;;;;5034384;28;20084;-78
2021/01/08 04:14:27;;;;;;;12.10;7.55;;;5.90;99.90;;;;;;5033651;28;20044;-78
2021/01/08 04:16:53;;;;;;;14.85;8.95;;;5.80;99.90;;;;;;5033249;28;20076;-82
2021/01/08 04:19:19;;;;;;;12.85;8.02;;;5.90;99.90;;;;;;5033474;28;20028;-82
2021/01/08 04:21:46;;;;;;;14.02;8.57;;;5.90;99.90;;;;;;5033835;28;20065;-78
2021/01/08 04:24:12;;;;;;;16.48;8.68;;;5.90;99.90;;;;;;5033536;28;20147;-81
2021/01/08 04:26:38;;;;;;;16.35;9.45;;;5.90;99.90;;;;;;5033511;28;20013;-78
2021/01/08 04:29:04;;;;;;;15.38;8.98;;;5.90;99.90;;;;;;5033790;28;20017;-76
2021/01/08 04:31:29;;;;;;;21.38;9.23;;;6.00;99.90;;;;;;5035050;28;20025;-80
2021/01/08 04:33:55;;;;;;;13.77;8.52;;;6.00;99.90;;;;;;5033645;28;20026;-77
2021/01/08 04:36:21;;;;;;;13.23;8.35;;;6.00;99.90;;;;;;5032610;28;20098;-79
2021/01/08 04:38:47;;;;;;;12.50;7.65;;;6.00;99.90;;;;;;5033214;28;20033;-78
2021/01/08 04:41:13;;;;;;;16.52;7.68;;;6.00;99.90;;;;;;5033614;28;20604;-77
2021/01/08 04:43:39;;;;;;;10.25;7.05;;;6.00;99.90;;;;;;5033406;28;20470;-82
2021/01/08 04:46:17;;;;;;;13.15;7.47;;;6.00;99.90;;;;;;5032801;28;20025;-74
2021/01/08 04:48:44;;;;;;;13.43;6.88;;;6.00;99.90;;;;;;5033051;28;20104;-81
2021/01/08 04:51:11;;;;;;;12.73;6.60;;;6.00;99.90;;;;;;5033018;28;20017;-79
2021/01/08 04:53:37;;;;;;;8.75;6.00;;;6.00;99.90;;;;;;5032842;28;20378;-81
2021/01/08 04:56:07;;;;;;;10.05;5.72;;;6.00;99.90;;;;;;5032517;28;20014;-79
2021/01/08 04:58:33;;;;;;;9.90;6.28;;;6.10;99.90;;;;;;5032779;28;20104;-76
2021/01/08 05:01:01;;;;;;;11.50;6.68;;;6.10;99.90;;;;;;5014780;28;20032;-80
2021/01/08 05:03:27;;;;;;;11.73;6.45;;;6.10;99.90;;;;;;5033211;28;20485;-82
2021/01/08 05:05:53;;;;;;;12.93;6.65;;;6.10;99.90;;;;;;5032537;28;20032;-78
2021/01/08 05:08:19;;;;;;;13.30;7.07;;;6.10;99.90;;;;;;5032510;28;20033;-75
2021/01/08 05:10:45;;;;;;;12.20;6.72;;;6.10;99.90;;;;;;5032692;28;20108;-78
2021/01/08 05:13:11;;;;;;;13.43;6.40;;;6.20;99.90;;;;;;5015183;28;20141;-81
2021/01/08 05:15:38;;;;;;;9.57;5.68;;;6.20;99.90;;;;;;5014746;28;20022;-80
2021/01/08 05:18:04;;;;;;;8.38;5.93;;;6.20;99.90;;;;;;5032297;28;20021;-80
2021/01/08 05:20:31;;;;;;;10.88;6.15;;;6.20;99.90;;;;;;5032567;28;20377;-78
2021/01/08 05:22:57;;;;;;;12.82;6.30;;;6.20;99.90;;;;;;5032444;28;20093;-78
2021/01/08 05:25:23;;;;;;;7.88;5.63;;;6.20;99.90;;;;;;5032905;28;20009;-81
2021/01/08 05:27:49;;;;;;;11.85;6.30;;;6.30;99.90;;;;;;5032428;28;20086;-78
2021/01/08 05:30:27;;;;;;;9.68;6.20;;;6.20;99.90;;;;;;5032182;28;20159;-80
2021/01/08 05:33:01;;;;;;;9.07;6.20;;;6.30;99.90;;;;;;5014277;28;20032;-79
2021/01/08 05:35:32;;;;;;;10.50;6.63;;;6.30;99.90;;;;;;5032031;28;20446;-78
2021/01/08 05:38:06;;;;;;;10.32;6.07;;;6.30;99.90;;;;;;5031611;28;20097;-81
2021/01/08 05:40:33;;;;;;;8.40;5.50;;;6.30;99.90;;;;;;5039916;28;20044;-81
2021/01/08 05:43:01;;;;;;;10.95;6.63;;;6.30;99.90;;;;;;5039845;28;20528;-82
2021/01/08 05:45:29;;;;;;;10.35;6.47;;;6.30;99.90;;;;;;5033320;28;20028;-78
2021/01/08 05:47:57;;;;;;;10.25;6.40;;;6.30;99.90;;;;;;5041716;28;20036;-81
2021/01/08 05:50:25;;;;;;;9.70;6.22;;;6.30;99.90;;;;;;5031599;28;20120;-77
2021/01/08 05:53:00;;;;;;;10.95;5.53;;;6.40;99.90;;;;;;5032552;28;20108;-79
2021/01/08 05:55:27;;;;;;;11.35;5.88;;;6.40;99.90;;;;;;5031783;28;20018;-78
2021/01/08 05:57:54;;;;;;;9.88;5.80;;;6.40;99.90;;;;;;5030977;28;20033;-79
2021/01/08 06:00:21;;;;;;;8.85;6.10;;;6.40;99.90;;;;;;5026187;28;20180;-76
2021/01/08 06:02:53;;;;;;;10.13;6.18;;;6.40;99.90;;;;;;5029793;28;20072;-75
2021/01/08 06:05:20;;;;;;;8.38;5.68;;;6.40;99.90;;;;;;5038986;28;20063;-81
2021/01/08 06:07:50;;;;;;;9.45;5.95;;;6.40;99.90;;;;;;5031395;28;20084;-80
2021/01/08 06:10:19;;;;;;;10.95;6.57;;;6.40;99.90;;;;;;5031977;28;20486;-82
2021/01/08 06:12:46;;;;;;;8.88;6.63;;;6.40;99.90;;;;;;5031410;28;20032;-82
2021/01/08 06:15:16;;;;;;;9.40;6.47;;;6.30;99.90;;;;;;5031636;28;20021;-78
2021/01/08 06:17:47;;;;;;;10.77;6.88;;;6.30;99.90;;;;;;5031236;28;21243;-81
2021/01/08 06:20:14;;;;;;;11.80;7.50;;;6.20;99.90;;;;;;5030899;28;20433;-77
2021/01/08 06:22:41;;;;;;;12.82;7.65;;;6.20;99.90;;;;;;5031377;28;20037;-76
2021/01/08 06:25:08;;;;;;;11.10;7.32;;;6.20;99.90;;;;;;5031231;28;20417;-79
2021/01/08 06:27:35;;;;;;;10.73;7.28;;;6.20;99.90;;;;;;5031306;28;20040;-80
2021/01/08 06:30:05;;;;;;;16.13;7.65;;;6.10;99.90;;;;;;5013203;28;20021;-80
2021/01/08 06:32:32;;;;;;;12.38;7.65;;;6.10;99.90;;;;;;5043693;28;20021;-81
2021/01/08 06:35:07;;;;;;;14.18;8.05;;;6.20;99.90;;;;;;5034402;28;20418;-83
2021/01/08 06:37:41;;;;;;;13.27;8.48;;;6.20;99.90;;;;;;5035320;28;20022;-78
2021/01/08 06:40:12;;;;;;;14.02;8.80;;;6.20;99.90;;;;;;5035171;28;20021;-79
2021/01/08 06:42:46;;;;;;;16.58;8.88;;;6.10;99.90;;;;;;5031021;28;20025;-76
2021/01/08 06:45:14;;;;;;;13.77;8.90;;;6.10;99.90;;;;;;5031067;28;20017;-80
2021/01/08 06:47:47;;;;;;;15.32;8.68;;;6.10;99.90;;;;;;5030055;28;20029;-81
2021/01/08 06:50:19;;;;;;;17.15;10.18;;;6.10;99.90;;;;;;5030495;28;20028;-75
2021/01/08 06:52:47;;;;;;;17.30;10.52;;;6.10;99.90;;;;;;5026948;28;20030;-78
2021/01/08 06:55:22;;;;;;;14.20;9.38;;;6.10;99.90;;;;;;5029417;28;20096;-77
2021/01/08 06:57:54;;;;;;;14.55;8.80;;;6.10;99.90;;;;;;5030823;28;20075;-77
2021/01/08 07:00:29;;;;;;;17.00;8.90;;;6.10;99.90;;;;;;5044596;28;21233;-80
2021/01/08 07:03:05;;;;;;;18.33;10.68;;;6.10;99.90;;;;;;5037098;28;20062;-78
2021/01/08 07:05:32;;;;;;;14.73;9.63;;;6.00;99.90;;;;;;5042614;28;20092;-79
2021/01/08 07:07:58;;;;;;;19.88;10.75;;;6.00;99.90;;;;;;5044703;28;20018;-76
2021/01/08 07:10:24;;;;;;;19.98;10.93;;;6.10;99.90;;;;;;5047727;28;20074;-75
2021/01/08 07:12:54;;;;;;;17.42;10.80;;;6.00;99.90;;;;;;5043185;28;20022;-76
2021/01/08 07:15:21;;;;;;;24.88;10.02;;;6.00;99.90;;;;;;5030818;28;20037;-75
2021/01/08 07:17:54;;;;;;;15.95;9.90;;;6.00;99.90;;;;;;5030618;28;20018;-75
2021/01/08 07:20:21;;;;;;;18.52;11.43;;;6.00;99.90;;;;;;5030951;28;20144;-77
2021/01/08 07:22:54;;;;;;;16.40;10.40;;;6.00;99.90;;;;;;5030881;28;20030;-75
2021/01/08 07:25:24;;;;;;;17.67;10.77;;;6.00;99.90;;;;;;5030946;28;20428;-75
2021/01/08 07:27:52;;;;;;;21.15;12.50;;;6.00;99.90;;;;;;5029774;28;20610;-74
2021/01/08 07:30:19;;;;;;;23.48;11.75;;;6.10;99.90;;;;;;5014456;28;20369;-72
2021/01/08 07:32:47;;;;;;;19.67;11.80;;;6.10;99.90;;;;;;5034837;28;20101;-72
2021/01/08 07:35:20;;;;;;;20.00;11.68;;;6.10;99.90;;;;;;5042340;28;20021;-72
2021/01/08 07:38:09;;;;;;;22.90;12.02;;;6.10;99.90;;;;;;5034618;28;20021;-76
2021/01/08 07:40:35;;;;;;;21.67;12.43;;;6.10;99.90;;;;;;5026152;28;20025;-80
2021/01/08 07:43:02;;;;;;;16.42;10.68;;;6.20;99.90;;;;;;5036686;28;20025;-80
2021/01/08 07:46:04;;;;;;;17.60;11.65;;;6.20;99.90;;;;;;5036255;28;20100;-75
2021/01/08 07:48:35;;;;;;;19.67;10.88;;;6.30;99.90;;;;;;4953382;28;20427;-72
2021/01/08 07:51:13;;;;;;;17.67;11.40;;;6.20;99.90;;;;;;5020813;28;20060;-76
2021/01/08 07:53:42;;;;;;;20.10;12.13;;;6.20;99.90;;;;;;5034091;28;20017;-80
2021/01/08 07:56:11;;;;;;;17.35;11.57;;;6.30;99.90;;;;;;5039550;28;20028;-73
2021/01/08 07:58:37;;;;;;;17.58;11.90;;;6.40;99.90;;;;;;5051024;28;20021;-74
2021/01/08 08:01:08;;;;;;;18.95;11.20;;;6.40;99.90;;;;;;5036801;28;20093;-74
2021/01/08 08:03:36;;;;;;;20.33;11.00;;;6.40;99.90;;;;;;5031997;28;20128;-73
2021/01/08 08:06:03;;;;;;;19.92;11.95;;;6.40;99.90;;;;;;5049918;28;20021;-73
2021/01/08 08:08:29;;;;;;;24.30;11.95;;;6.40;99.90;;;;;;5053379;28;20613;-73
2021/01/08 08:11:16;;;;;;;20.92;13.07;;;6.40;99.90;;;;;;5029369;28;20104;-74
2021/01/08 08:13:43;;;;;;;22.67;11.60;;;6.40;99.90;;;;;;5046441;28;20485;-73
2021/01/08 08:16:09;;;;;;;17.27;11.00;;;6.40;99.90;;;;;;5034681;28;20029;-74
2021/01/08 08:18:52;;;;;;;19.40;11.85;;;6.50;99.90;;;;;;5033553;28;20025;-74
2021/01/08 08:21:18;;;;;;;24.48;13.10;;;6.50;99.90;;;;;;5033769;28;20025;-74
2021/01/08 08:23:55;;;;;;;20.33;11.02;;;6.50;99.90;;;;;;5042814;28;20033;-74
2021/01/08 08:26:21;;;;;;;21.35;13.02;;;6.50;99.90;;;;;;5034370;28;20037;-74
2021/01/08 08:29:04;;;;;;;16.63;10.90;;;6.50;99.90;;;;;;5017188;28;20363;-75
2021/01/08 08:31:35;;;;;;;19.95;12.90;;;6.50;99.90;;;;;;5013303;28;20030;-73
2021/01/08 08:34:02;;;;;;;19.30;11.13;;;6.50;99.90;;;;;;5033308;28;20048;-76
2021/01/08 08:36:30;;;;;;;21.13;12.20;;;6.50;99.90;;;;;;5030738;28;20029;-74
2021/01/08 08:38:57;;;;;;;16.08;10.82;;;6.50;99.90;;;;;;5033527;28;20099;-74
2021/01/08 08:41:22;;;;;;;19.40;11.38;;;6.50;99.90;;;;;;5033508;28;20029;-74
2021/01/08 08:43:48;;;;;;;15.85;10.27;;;6.50;99.90;;;;;;5025654;28;20021;-76
2021/01/08 08:46:14;;;;;;;16.52;10.73;;;6.50;99.90;;;;;;5024087;28;20362;-78
2021/01/08 08:48:40;;;;;;;16.52;9.93;;;6.50;99.90;;;;;;5040829;28;20028;-74
2021/01/08 08:51:05;;;;;;;17.23;10.13;;;6.60;99.90;;;;;;5026315;28;20029;-78
2021/01/08 08:53:31;;;;;;;17.33;10.35;;;6.60;99.90;;;;;;5044772;28;20029;-77
2021/01/08 08:55:57;;;;;;;21.30;10.23;;;6.70;99.90;;;;;;5043505;28;20670;-77
2021/01/08 08:58:23;;;;;;;15.48;10.18;;;6.70;99.90;;;;;;5046012;28;20028;-78
2021/01/08 09:00:51;;;;;;;14.95;9.57;;;6.70;99.90;;;;;;5047833;28;20056;-76
2021/01/08 09:03:22;;;;;;;15.02;8.70;;;6.80;99.90;;;;;;5048934;28;20042;-79
2021/01/08 09:05:49;;;;;;;14.23;9.43;;;6.90;99.90;;;;;;5046240;28;20545;-73
2021/01/08 09:08:30;;;;;;;13.82;8.07;;;6.90;99.90;;;;;;5049079;28;20036;-73
2021/01/08 09:11:17;;;;;;;12.30;7.68;;;6.90;99.90;;;;;;5033208;28;20017;-73
2021/01/08 09:13:49;;;;;;;11.75;7.55;;;6.90;99.90;;;;;;5027874;28;20031;-71
2021/01/08 09:16:28;;;;;;;10.35;6.72;;;6.90;99.90;;;;;;5047785;28;20024;-71
2021/01/08 09:19:06;;;;;;;10.48;5.93;;;6.90;99.90;;;;;;5036460;28;20472;-71
2021/01/08 09:21:34;;;;;;;8.63;5.32;;;6.90;99.90;;;;;;5031164;28;20497;-71
2021/01/08 09:24:03;;;;;;;8.90;6.10;;;6.90;99.90;;;;;;5032563;28;20460;-72
2021/01/08 09:26:30;;;;;;;8.48;5.90;;;6.90;99.90;;;;;;5045179;28;20031;-71
2021/01/08 09:28:56;;;;;;;8.57;5.60;;;6.90;99.90;;;;;;5048798;28;20388;-71
2021/01/08 09:31:43;;;;;;;6.90;4.82;;;6.80;99.90;;;;;;5048683;28;20100;-71
2021/01/08 09:34:18;;;;;;;6.28;4.47;;;7.10;99.90;;;;;;5049976;28;20036;-72
2021/01/08 09:36:47;;;;;;;6.95;4.95;;;7.20;99.90;;;;;;5048620;28;20108;-72
2021/01/08 09:39:13;;;;;;;6.22;4.60;;;7.80;99.90;;;;;;5050089;28;20104;-73
2021/01/08 09:41:41;;;;;;;11.18;5.07;;;8.90;99.90;;;;;;5050054;28;20472;-73
2021/01/08 09:44:09;;;;;;;6.28;4.55;;;9.80;99.90;;;;;;5043956;28;20116;-74
2021/01/08 09:46:56;;;;;;;6.55;4.00;;;11.00;99.90;;;;;;5046293;28;20464;-73
2021/01/08 09:49:25;;;;;;;9.10;3.83;;;11.30;99.90;;;;;;5022733;28;20041;-75
2021/01/08 09:52:01;;;;;;;5.13;4.20;;;11.40;99.90;;;;;;5048345;28;20493;-78
2021/01/08 09:54:50;;;;;;;5.28;3.80;;;11.70;99.90;;;;;;5047591;28;20657;-76
2021/01/08 09:57:38;;;;;;;5.43;4.22;;;11.80;99.90;;;;;;5029650;28;20025;-77
2021/01/08 10:00:09;;;;;;;5.47;3.88;;;12.10;99.90;;;;;;5045733;28;20067;-76
2021/01/08 10:02:44;;;;;;;5.30;4.00;;;12.70;99.90;;;;;;5041126;28;20046;-75
2021/01/08 10:05:19;;;;;;;5.90;3.45;;;12.90;99.90;;;;;;5046050;28;20025;-76
2021/01/08 10:07:46;;;;;;;3.75;3.10;;;13.30;99.90;;;;;;5027548;28;20071;-75
2021/01/08 10:10:38;;;;;;;4.72;3.60;;;13.20;99.90;;;;;;5019553;28;20029;-75
2021/01/08 10:13:07;;;;;;;4.40;3.30;;;12.80;99.90;;;;;;5039264;28;20484;-74
2021/01/08 10:15:37;;;;;;;4.70;3.85;;;13.40;99.90;;;;;;5048407;28;20029;-74
2021/01/08 10:18:12;;;;;;;6.45;3.85;;;13.60;99.90;;;;;;5044203;28;20021;-75
2021/01/08 10:20:47;;;;;;;4.00;3.38;;;14.00;99.90;;;;;;5031659;28;20548;-73
2021/01/08 10:23:16;;;;;;;5.22;3.88;;;13.80;99.90;;;;;;5046345;28;20073;-75
2021/01/08 10:25:43;;;;;;;6.35;3.05;;;13.80;99.90;;;;;;5022639;28;20033;-79
2021/01/08 10:28:18;;;;;;;6.63;3.42;;;13.80;99.90;;;;;;5047348;28;20697;-78
2021/01/08 10:30:46;;;;;;;10.65;3.25;;;14.00;99.90;;;;;;5043462;28;20021;-79
2021/01/08 10:33:12;;;;;;;6.30;3.58;;;14.20;99.90;;;;;;5037165;28;20033;-77
2021/01/08 10:35:43;;;;;;;5.65;3.38;;;14.10;99.90;;;;;;5038009;28;20069;-79
2021/01/08 10:38:10;;;;;;;4.05;3.15;;;14.40;99.90;;;;;;5047927;28;20067;-74
2021/01/08 10:40:36;;;;;;;5.05;3.53;;;14.00;99.90;;;;;;5037866;28;20033;-77
2021/01/08 10:43:02;;;;;;;4.32;3.20;;;14.20;99.90;;;;;;5049435;28;20037;-77
2021/01/08 10:45:28;;;;;;;4.05;3.60;;;14.40;99.90;;;;;;5047096;28;20108;-77
2021/01/08 10:47:54;;;;;;;4.13;3.22;;;15.00;99.90;;;;;;5037481;28;20025;-76
2021/01/08 10:50:20;;;;;;;3.85;2.65;;;14.70;99.90;;;;;;5027261;28;20024;-75
2021/01/08 10:52:46;;;;;;;7.50;3.47;;;14.30;99.90;;;;;;5039043;28;20540;-79
2021/01/08 10:55:12;;;;;;;5.30;3.20;;;13.90;99.90;;;;;;5038042;28;20096;-79
2021/01/08 10:57:40;;;;;;;5.10;3.38;;;14.00;99.90;;;;;;5039560;28;20070;-76
2021/01/08 11:00:12;;;;;;;4.95;3.45;;;14.10;99.90;;;;;;5047093;28;20067;-76
2021/01/08 11:02:37;;;;;;;;;;;14.50;99.90;;;;;;5046868;28;20412;-74
2021/01/08 11:05:05;;;;;;;4.82;3.42;;;14.00;99.90;;;;;;5038390;28;19912;-78
2021/01/08 11:07:33;;;;;;;9.80;3.67;;;13.70;99.90;;;;;;5016302;28;20172;-78
2021/01/08 11:10:00;;;;;;;4.55;3.45;;;12.70;99.90;;;;;;5049279;28;20017;-77
2021/01/08 11:12:27;;;;;;;4.68;3.45;;;12.20;99.90;;;;;;5019082;28;20041;-78
2021/01/08 11:14:55;;;;;;;4.75;3.75;;;12.30;99.90;;;;;;5030923;28;20480;-79
2021/01/08 11:17:22;;;;;;;4.95;3.67;;;12.30;99.90;;;;;;5048524;28;20028;-79
2021/01/08 11:19:48;;;;;;;4.15;3.10;;;12.40;99.90;;;;;;5027614;28;20037;-75
2021/01/08 11:22:14;;;;;;;3.70;3.35;;;12.20;99.90;;;;;;5047587;28;20029;-78
2021/01/08 11:24:40;;;;;;;5.80;3.72;;;12.30;99.90;;;;;;5045077;28;20523;-78
2021/01/08 11:27:06;;;;;;;4.68;3.58;;;12.10;99.90;;;;;;5030758;28;20106;-77
2021/01/08 11:29:34;;;;;;;4.15;3.20;;;11.90;99.90;;;;;;5049219;28;20488;-78
2021/01/08 11:32:00;;;;;;;5.20;4.05;;;11.40;99.90;;;;;;5005735;28;20068;-73
2021/01/08 11:34:26;;;;;;;4.60;3.53;;;10.50;99.90;;;;;;5036765;28;20065;-73
2021/01/08 11:36:57;;;;;;;4.68;3.38;;;10.10;99.90;;;;;;5031655;28;20048;-74
2021/01/08 11:39:23;;;;;;;4.50;3.25;;;9.70;99.90;;;;;;5030764;28;20040;-74
2021/01/08 11:41:54;;;;;;;4.30;3.50;;;9.50;99.90;;;;;;5031859;28;20390;-74
2021/01/08 11:44:22;;;;;;;4.95;3.78;;;9.40;99.90;;;;;;5032464;28;20083;-75
2021/01/08 11:46:49;;;;;;;3.58;3.22;;;9.20;99.90;;;;;;5020253;28;20104;-74
2021/01/08 11:49:16;;;;;;;6.07;3.58;;;8.90;99.90;;;;;;5037961;28;20029;-73
2021/01/08 11:51:42;;;;;;;5.00;3.78;;;8.70;99.90;;;;;;5044828;28;20048;-75
2021/01/08 11:54:10;;;;;;;5.22;3.88;;;8.60;99.90;;;;;;5007630;28;20032;-75
2021/01/08 11:56:36;;;;;;;3.88;3.47;;;8.50;99.90;;;;;;5043135;28;20068;-74
2021/01/08 11:59:03;;;;;;;5.45;3.97;;;8.50;99.90;;;;;;5043779;28;20033;-75
2021/01/08 12:01:30;;;;;;;5.68;4.22;;;8.40;99.90;;;;;;5046800;28;20029;-74
2021/01/08 12:03:56;;;;;;;7.53;3.90;;;8.40;99.90;;;;;;5046274;28;20064;-76
2021/01/08 12:06:27;;;;;;;4.80;3.97;;;8.30;99.90;;;;;;5046396;28;20596;-73
2021/01/08 12:08:54;;;;;;;4.93;4.10;;;8.20;99.90;;;;;;5044330;28;20033;-74
2021/01/08 12:11:21;;;;;;;4.72;3.83;;;8.10;99.90;;;;;;5045736;28;20021;-75
2021/01/08 12:13:46;;;;;;;4.32;3.83;;;8.10;99.90;;;;;;5046855;28;20104;-74
2021/01/08 12:16:12;;;;;;;4.68;4.00;;;8.00;99.90;;;;;;5044503;28;20100;-74
2021/01/08 12:18:38;;;;;;;4.78;3.85;;;8.00;99.90;;;;;;5046512;28;20509;-73
2021/01/08 12:21:06;;;;;;;9.18;4.10;;;7.80;99.90;;;;;;5049003;28;20028;-74
2021/01/08 12:23:32;;;;;;;5.95;4.45;;;7.70;99.90;;;;;;5050415;28;20092;-74
2021/01/08 12:25:58;;;;;;;6.80;4.20;;;7.70;99.90;;;;;;5052032;28;20023;-74
2021/01/08 12:28:24;;;;;;;9.20;5.90;;;7.70;99.90;;;;;;5048372;28;20025;-74
2021/01/08 12:30:50;;;;;;;7.53;4.43;;;7.70;99.90;;;;;;5049748;28;20057;-74
2021/01/08 12:33:16;;;;;;;8.32;4.10;;;7.70;99.90;;;;;;5048380;28;20049;-74
2021/01/08 12:35:42;;;;;;;5.20;4.20;;;7.70;99.90;;;;;;5022960;28;20113;-76
2021/01/08 12:38:08;;;;;;;6.30;4.25;;;7.60;99.90;;;;;;5048726;28;20021;-74
2021/01/08 12:40:35;;;;;;;5.72;4.68;;;7.60;99.90;;;;;;5048889;28;20028;-74
2021/01/08 12:43:01;;;;;;;4.75;4.07;;;7.60;99.90;;;;;;5016290;28;20038;-75
2021/01/08 12:45:27;;;;;;;9.23;4.30;;;7.50;99.90;;;;;;5024306;28;20436;-76
2021/01/08 12:47:53;;;;;;;5.22;4.35;;;7.50;99.90;;;;;;5034881;28;20013;-77
2021/01/08 12:50:19;;;;;;;10.15;4.60;;;7.50;99.90;;;;;;5036414;28;20438;-75
2021/01/08 12:52:47;;;;;;;7.43;5.10;;;7.50;99.90;;;;;;5033263;28;20044;-75
2021/01/08 12:55:13;;;;;;;15.88;4.38;;;7.40;99.90;;;;;;5042842;28;20017;-75